createdAt,value
2023-03-19T00:00:35.971Z,28.73
2023-03-19T00:03:02.590Z,30.53
2023-03-19T00:05:29.174Z,29.53
2023-03-19T00:07:56.065Z,30.30
2023-03-19T00:10:22.585Z,31.90
2023-03-19T00:12:49.039Z,32.53
2023-03-19T00:15:16.109Z,32.07
2023-03-19T00:17:43.073Z,30.33
2023-03-19T00:20:11.724Z,30.37
2023-03-19T00:22:38.486Z,30.70
2023-03-19T00:25:05.446Z,29.83
2023-03-19T00:27:31.985Z,31.47
2023-03-19T00:30:00.945Z,31.20
2023-03-19T00:32:27.969Z,31.20
2023-03-19T00:34:54.444Z,37.13
2023-03-19T00:37:20.904Z,34.73
2023-03-19T00:39:47.668Z,33.43
2023-03-19T00:42:14.179Z,36.63
2023-03-19T00:44:40.656Z,37.63
2023-03-19T00:47:07.328Z,32.37
2023-03-19T00:49:33.856Z,31.87
2023-03-19T00:52:00.361Z,34.27
2023-03-19T00:54:27.962Z,36.27
2023-03-19T00:56:54.447Z,39.00
2023-03-19T00:59:20.971Z,36.43
2023-03-19T01:01:48.011Z,38.20
2023-03-19T01:04:15.393Z,36.93
2023-03-19T01:06:45.017Z,34.50
2023-03-19T01:09:12.128Z,37.43
2023-03-19T01:11:39.075Z,35.77
2023-03-19T01:14:06.383Z,36.97
2023-03-19T01:16:34.728Z,39.33
2023-03-19T01:19:02.464Z,40.17
2023-03-19T01:21:31.082Z,36.47
2023-03-19T01:23:58.298Z,44.10
2023-03-19T01:26:24.967Z,36.40
2023-03-19T01:28:51.386Z,43.00
2023-03-19T01:31:17.981Z,38.47
2023-03-19T01:33:44.564Z,41.27
2023-03-19T01:36:11.325Z,43.83
2023-03-19T01:38:38.022Z,43.27
2023-03-19T01:41:04.571Z,43.30
2023-03-19T01:43:32.684Z,47.60
2023-03-19T01:46:02.488Z,46.30
2023-03-19T01:48:49.044Z,50.63
2023-03-19T01:51:17.444Z,48.63
2023-03-19T01:53:47.985Z,46.80
2023-03-19T01:56:16.295Z,47.93
2023-03-19T01:58:44.707Z,49.57
2023-03-19T02:01:11.356Z,48.57
2023-03-19T02:03:39.416Z,52.60
2023-03-19T02:06:06.559Z,48.23
2023-03-19T02:08:34.012Z,48.40
2023-03-19T02:11:02.100Z,54.67
2023-03-19T02:13:28.818Z,53.87
2023-03-19T02:15:55.414Z,52.20
2023-03-19T02:18:22.185Z,43.93
2023-03-19T02:21:06.973Z,51.10
2023-03-19T02:23:48.211Z,52.97
2023-03-19T02:26:17.291Z,50.50
2023-03-19T02:28:46.494Z,51.33
2023-03-19T02:31:13.852Z,47.80
2023-03-19T02:33:40.587Z,45.20
2023-03-19T02:36:10.863Z,52.80
2023-03-19T02:38:39.129Z,48.23
2023-03-19T02:41:08.367Z,50.30
2023-03-19T02:43:37.406Z,52.60
2023-03-19T02:46:07.336Z,56.50
2023-03-19T02:48:34.957Z,59.07
2023-03-19T02:51:01.719Z,49.60
2023-03-19T02:53:28.182Z,53.27
2023-03-19T02:55:54.656Z,50.00
2023-03-19T02:58:21.227Z,52.03
2023-03-19T03:00:47.864Z,55.77
2023-03-19T03:03:14.452Z,52.27
2023-03-19T03:05:40.921Z,57.10
2023-03-19T03:08:07.399Z,53.07
2023-03-19T03:10:34.149Z,52.10
2023-03-19T03:13:01.629Z,52.47
2023-03-19T03:15:28.235Z,50.60
2023-03-19T03:17:56.428Z,51.17
2023-03-19T03:20:23.525Z,47.00
2023-03-19T03:22:50.267Z,48.47
2023-03-19T03:25:16.828Z,50.27
2023-03-19T03:27:43.410Z,44.10
2023-03-19T03:30:10.790Z,45.23
2023-03-19T03:32:38.087Z,43.67
2023-03-19T03:35:06.130Z,43.27
2023-03-19T03:37:32.721Z,39.93
2023-03-19T03:39:59.774Z,42.60
2023-03-19T03:42:26.263Z,43.37
2023-03-19T03:44:52.728Z,39.70
2023-03-19T03:47:19.177Z,37.67
2023-03-19T03:49:45.692Z,40.07
2023-03-19T03:52:12.410Z,39.87
2023-03-19T03:54:39.052Z,38.67
2023-03-19T03:57:06.134Z,41.17
2023-03-19T03:59:32.604Z,39.47
2023-03-19T04:01:59.145Z,42.43
2023-03-19T04:04:26.601Z,42.00
2023-03-19T04:06:53.105Z,37.00
2023-03-19T04:09:19.620Z,39.97
2023-03-19T04:11:46.161Z,42.60
2023-03-19T04:14:13.119Z,41.10
2023-03-19T04:16:39.992Z,38.23
2023-03-19T04:19:07.718Z,36.27
2023-03-19T04:21:34.180Z,38.47
2023-03-19T04:24:02.203Z,35.03
2023-03-19T04:26:28.766Z,36.80
2023-03-19T04:28:55.216Z,35.70
2023-03-19T04:31:22.164Z,34.67
2023-03-19T04:33:49.291Z,39.53
2023-03-19T04:36:17.630Z,39.17
2023-03-19T04:38:44.109Z,40.73
2023-03-19T04:41:10.925Z,39.83
2023-03-19T04:43:37.413Z,38.47
2023-03-19T04:46:04.028Z,42.47
2023-03-19T04:48:30.646Z,40.07
2023-03-19T04:50:57.409Z,39.20
2023-03-19T04:53:25.664Z,43.67
2023-03-19T04:55:52.242Z,42.03
2023-03-19T04:58:19.011Z,42.83
2023-03-19T05:00:47.526Z,43.57
2023-03-19T05:03:15.217Z,42.73
2023-03-19T05:05:41.778Z,40.87
2023-03-19T05:08:09.393Z,43.80
2023-03-19T05:10:36.677Z,47.03
2023-03-19T05:13:03.636Z,45.47
2023-03-19T05:15:30.276Z,42.60
2023-03-19T05:17:56.818Z,43.43
2023-03-19T05:20:23.828Z,43.60
2023-03-19T05:22:52.395Z,40.23
2023-03-19T05:25:19.505Z,46.17
2023-03-19T05:27:46.226Z,46.53
2023-03-19T05:30:13.047Z,43.00
2023-03-19T05:32:40.761Z,41.20
2023-03-19T05:35:07.731Z,41.50
2023-03-19T05:37:34.250Z,40.27
2023-03-19T05:40:00.850Z,38.77
2023-03-19T05:42:27.306Z,37.57
2023-03-19T05:44:53.754Z,38.63
2023-03-19T05:47:20.231Z,34.33
2023-03-19T05:49:47.289Z,34.00
2023-03-19T05:52:13.934Z,31.63
2023-03-19T05:54:41.397Z,29.67
2023-03-19T05:57:08.128Z,30.97
2023-03-19T05:59:34.834Z,28.40
2023-03-19T06:02:01.737Z,31.43
2023-03-19T06:04:28.247Z,27.17
2023-03-19T06:06:54.714Z,26.43
2023-03-19T06:09:21.168Z,28.17
2023-03-19T06:11:47.659Z,25.90
2023-03-19T06:14:14.212Z,23.73
2023-03-19T06:16:40.904Z,23.63
2023-03-19T06:19:07.400Z,22.60
2023-03-19T06:21:33.869Z,23.10
2023-03-19T06:24:00.512Z,22.07
2023-03-19T06:26:27.498Z,19.80
2023-03-19T06:28:54.403Z,23.77
2023-03-19T06:31:21.386Z,22.63
2023-03-19T06:33:49.120Z,21.93
2023-03-19T06:36:15.660Z,21.93
2023-03-19T06:38:42.134Z,21.90
2023-03-19T06:41:08.785Z,24.90
2023-03-19T06:43:37.338Z,25.33
2023-03-19T06:46:05.003Z,21.73
2023-03-19T06:48:31.716Z,22.93
2023-03-19T06:50:58.265Z,26.03
2023-03-19T06:53:24.990Z,22.87
2023-03-19T06:55:51.463Z,25.50
2023-03-19T06:58:17.964Z,23.90
2023-03-19T07:00:44.586Z,27.63
2023-03-19T07:03:11.501Z,24.53
2023-03-19T07:05:38.031Z,20.60
2023-03-19T07:08:11.611Z,24.23
2023-03-19T07:10:39.364Z,21.47
2023-03-19T07:13:06.343Z,24.07
2023-03-19T07:15:33.148Z,24.43
2023-03-19T07:17:59.603Z,23.33
2023-03-19T07:20:26.190Z,23.63
2023-03-19T07:22:52.995Z,21.90
2023-03-19T07:25:19.552Z,22.67
2023-03-19T07:27:46.191Z,21.53
2023-03-19T07:30:13.676Z,22.87
2023-03-19T07:32:40.296Z,19.53
2023-03-19T07:35:08.056Z,18.77
2023-03-19T07:37:34.536Z,16.43
2023-03-19T07:40:01.061Z,15.27
2023-03-19T07:42:27.507Z,15.90
2023-03-19T07:44:53.959Z,14.60
2023-03-19T07:47:29.072Z,13.67
2023-03-19T07:49:56.692Z,12.80
2023-03-19T07:52:23.881Z,13.43
2023-03-19T07:54:50.683Z,13.13
2023-03-19T07:57:17.160Z,10.43
2023-03-19T07:59:43.626Z,9.37
2023-03-19T08:02:13.367Z,8.53
2023-03-19T08:04:40.550Z,9.20
2023-03-19T08:07:10.334Z,9.60
2023-03-19T08:09:37.601Z,9.40
2023-03-19T08:12:04.406Z,9.63
2023-03-19T08:14:31.086Z,8.07
2023-03-19T08:16:57.627Z,7.97
2023-03-19T08:19:24.194Z,8.00
2023-03-19T08:21:51.192Z,7.77
2023-03-19T08:24:18.761Z,8.00
2023-03-19T08:26:45.459Z,7.17
2023-03-19T08:29:12.325Z,7.60
2023-03-19T08:31:38.900Z,7.87
2023-03-19T08:34:10.673Z,7.57
2023-03-19T08:36:37.617Z,7.30
2023-03-19T08:39:04.313Z,7.40
2023-03-19T08:41:31.318Z,8.13
2023-03-19T08:43:57.800Z,7.00
2023-03-19T08:46:24.483Z,7.67
2023-03-19T08:48:51.058Z,7.63
2023-03-19T08:51:17.513Z,7.10
2023-03-19T08:53:43.974Z,7.10
2023-03-19T08:56:11.243Z,7.57
2023-03-19T08:58:38.117Z,7.17
2023-03-19T09:01:07.164Z,7.03
2023-03-19T09:03:33.698Z,6.73
2023-03-19T09:06:01.817Z,6.10
2023-03-19T09:08:29.336Z,6.30
2023-03-19T09:10:56.130Z,6.47
2023-03-19T09:13:23.379Z,6.47
2023-03-19T09:15:50.723Z,6.07
2023-03-19T09:18:17.599Z,6.67
2023-03-19T09:20:44.030Z,5.67
2023-03-19T09:23:10.493Z,6.03
2023-03-19T09:25:37.064Z,7.70
2023-03-19T09:28:03.710Z,6.20
2023-03-19T09:30:30.243Z,5.93
2023-03-19T09:32:57.026Z,5.47
2023-03-19T09:35:24.015Z,5.07
2023-03-19T09:37:51.986Z,5.97
2023-03-19T09:40:33.544Z,4.27
2023-03-19T09:43:18.657Z,5.10
2023-03-19T09:45:46.773Z,4.53
2023-03-19T09:48:19.742Z,3.90
2023-03-19T09:50:48.888Z,4.50
2023-03-19T09:53:18.356Z,3.30
2023-03-19T09:55:52.754Z,3.77
2023-03-19T09:58:26.251Z,4.23
2023-03-19T10:00:55.872Z,4.43
2023-03-19T10:03:35.357Z,3.00
2023-03-19T10:06:25.682Z,3.27
2023-03-19T10:09:01.053Z,3.20
2023-03-19T10:11:38.089Z,3.13
2023-03-19T10:14:42.539Z,2.70
2023-03-19T10:17:17.861Z,3.73
2023-03-19T10:19:55.810Z,3.07
2023-03-19T10:22:27.156Z,3.10
2023-03-19T10:24:55.251Z,3.90
2023-03-19T10:27:23.722Z,2.67
2023-03-19T10:29:50.198Z,2.50
2023-03-19T10:32:45.376Z,2.53
2023-03-19T10:35:20.571Z,3.10
2023-03-19T10:37:48.768Z,2.40
2023-03-19T10:40:21.895Z,2.80
2023-03-19T10:43:04.500Z,2.50
2023-03-19T10:45:38.975Z,2.80
2023-03-19T10:48:06.513Z,4.57
2023-03-19T10:50:36.770Z,3.30
2023-03-19T10:53:32.611Z,3.37
2023-03-19T10:56:18.961Z,1.93
2023-03-19T10:59:07.326Z,2.23
2023-03-19T11:01:35.970Z,2.60
2023-03-19T11:04:12.675Z,3.00
2023-03-19T11:06:39.798Z,2.53
2023-03-19T11:09:09.227Z,3.23
2023-03-19T11:11:42.614Z,2.97
2023-03-19T11:14:26.341Z,3.97
2023-03-19T11:17:18.789Z,2.83
2023-03-19T11:19:52.719Z,3.60
2023-03-19T11:22:24.759Z,3.33
2023-03-19T11:24:55.614Z,4.07
2023-03-19T11:27:34.993Z,4.60
2023-03-19T11:30:13.478Z,3.53
2023-03-19T11:33:07.094Z,3.83
2023-03-19T11:36:07.999Z,3.97
2023-03-19T11:38:57.123Z,4.13
2023-03-19T11:41:51.057Z,5.10
2023-03-19T11:44:28.299Z,3.77
2023-03-19T11:47:06.818Z,3.90
2023-03-19T11:49:50.770Z,3.90
2023-03-19T11:52:32.632Z,4.23
2023-03-19T11:55:23.660Z,3.53
2023-03-19T11:58:01.931Z,5.57
2023-03-19T12:00:31.475Z,4.40
2023-03-19T12:03:45.806Z,5.57
2023-03-19T12:07:03.410Z,4.00
2023-03-19T12:09:53.243Z,5.93
2023-03-19T12:12:49.049Z,4.00
2023-03-19T12:15:33.244Z,3.73
2023-03-19T12:18:08.928Z,4.33
2023-03-19T12:20:57.826Z,5.03
2023-03-19T12:23:57.661Z,4.63
2023-03-19T12:26:40.442Z,3.70
2023-03-19T12:29:09.828Z,6.07
2023-03-19T12:31:48.925Z,5.03
2023-03-19T12:34:38.523Z,4.63
2023-03-19T12:37:13.940Z,4.63
2023-03-19T12:39:55.854Z,5.13
2023-03-19T12:42:32.861Z,4.50
2023-03-19T12:45:01.026Z,5.63
2023-03-19T12:47:32.624Z,4.43
2023-03-19T12:50:08.552Z,4.93
2023-03-19T12:52:39.810Z,4.17
2023-03-19T12:55:12.391Z,3.70
2023-03-19T12:57:51.833Z,4.17
2023-03-19T13:00:21.678Z,4.13
2023-03-19T13:03:07.872Z,5.20
2023-03-19T13:05:41.793Z,5.67
2023-03-19T13:08:19.040Z,5.90
2023-03-19T13:10:45.568Z,5.73
2023-03-19T13:13:27.326Z,5.97
2023-03-19T13:15:58.207Z,5.93
2023-03-19T13:18:54.998Z,5.33
2023-03-19T13:21:31.530Z,4.87
2023-03-19T13:24:38.436Z,4.97
2023-03-19T13:27:07.267Z,5.07
2023-03-19T13:29:36.883Z,8.60
2023-03-19T13:32:09.080Z,6.27
2023-03-19T13:34:37.299Z,7.03
2023-03-19T13:37:18.417Z,5.40
2023-03-19T13:39:48.408Z,6.33
2023-03-19T13:42:41.328Z,6.73
2023-03-19T13:45:20.041Z,5.77
2023-03-19T13:47:49.100Z,7.73
2023-03-19T13:50:18.683Z,7.47
2023-03-19T13:52:45.097Z,6.30
2023-03-19T13:55:49.577Z,5.50
2023-03-19T13:58:43.462Z,5.10
2023-03-19T14:01:12.063Z,5.27
2023-03-19T14:03:56.685Z,5.80
2023-03-19T14:06:34.875Z,6.40
2023-03-19T14:09:01.611Z,6.13
2023-03-19T14:11:34.226Z,5.47
2023-03-19T14:14:06.432Z,6.53
2023-03-19T14:16:38.361Z,6.57
2023-03-19T14:19:11.577Z,7.90
2023-03-19T14:22:00.279Z,6.43
2023-03-19T14:27:33.095Z,6.67
2023-03-19T14:30:10.170Z,7.07
2023-03-19T14:32:41.136Z,7.53
2023-03-19T14:35:08.596Z,8.00
2023-03-19T14:37:38.039Z,7.07
2023-03-19T14:40:15.012Z,6.87
2023-03-19T14:43:06.552Z,7.63
2023-03-19T14:45:54.343Z,8.20
2023-03-19T14:48:32.803Z,8.40
2023-03-19T14:51:05.751Z,8.80
2023-03-19T14:53:44.720Z,8.47
2023-03-19T14:56:19.260Z,8.90
2023-03-19T14:58:56.899Z,9.07
2023-03-19T15:01:27.007Z,8.80
2023-03-19T15:04:00.383Z,8.73
2023-03-19T15:06:33.469Z,9.00
2023-03-19T15:09:02.308Z,9.00
2023-03-19T15:11:51.470Z,8.90
2023-03-19T15:14:39.997Z,9.00
2023-03-19T15:17:13.331Z,8.47
2023-03-19T15:19:40.298Z,8.83
2023-03-19T15:22:13.466Z,9.10
2023-03-19T15:24:39.951Z,8.93
2023-03-19T15:27:20.375Z,7.93
2023-03-19T15:29:49.279Z,7.60
2023-03-19T15:32:49.769Z,8.17
2023-03-19T15:35:23.449Z,8.77
2023-03-19T15:37:54.360Z,8.37
2023-03-19T15:40:22.712Z,9.47
2023-03-19T15:42:51.244Z,9.37
2023-03-19T15:45:24.350Z,9.10
2023-03-19T15:48:05.629Z,9.67
2023-03-19T15:50:36.452Z,10.27
2023-03-19T15:53:07.380Z,11.47
2023-03-19T15:55:35.997Z,12.47
2023-03-19T15:58:07.069Z,11.50
2023-03-19T16:00:39.770Z,11.73
2023-03-19T16:03:07.331Z,12.67
2023-03-19T16:05:34.052Z,14.77
2023-03-19T16:08:03.142Z,14.80
2023-03-19T16:10:40.951Z,17.70
2023-03-19T16:13:25.883Z,18.80
2023-03-19T16:16:03.564Z,19.77
2023-03-19T16:18:38.713Z,19.50
2023-03-19T16:21:09.237Z,20.73
2023-03-19T16:23:50.502Z,20.00
2023-03-19T16:26:25.919Z,19.97
2023-03-19T16:29:04.085Z,21.80
2023-03-19T16:31:33.981Z,21.57
2023-03-19T16:34:00.900Z,20.47
2023-03-19T16:36:33.281Z,19.10
2023-03-19T16:39:30.896Z,19.70
2023-03-19T16:42:27.533Z,19.53
2023-03-19T16:44:53.990Z,18.63
2023-03-19T16:47:22.644Z,18.83
2023-03-19T16:49:49.245Z,17.93
2023-03-19T16:52:19.916Z,18.67
2023-03-19T16:54:46.596Z,17.50
2023-03-19T16:57:14.231Z,19.53
2023-03-19T16:59:40.853Z,19.17
2023-03-19T17:02:14.223Z,20.13
2023-03-19T17:04:40.879Z,24.23
2023-03-19T17:07:08.451Z,28.67
2023-03-19T17:09:35.583Z,33.60
2023-03-19T17:12:03.310Z,22.23
2023-03-19T17:14:30.997Z,21.67
2023-03-19T17:16:58.015Z,21.23
2023-03-19T17:19:35.001Z,18.57
2023-03-19T17:22:02.318Z,18.73
2023-03-19T17:24:32.010Z,19.90
2023-03-19T17:27:00.692Z,18.63
2023-03-19T17:29:27.347Z,18.00
2023-03-19T17:31:56.708Z,18.00
2023-03-19T17:34:28.079Z,19.83
2023-03-19T17:36:57.342Z,18.40
2023-03-19T17:39:24.921Z,20.73
2023-03-19T17:41:51.646Z,21.70
2023-03-19T17:44:18.144Z,19.87
2023-03-19T17:46:46.368Z,19.60
2023-03-19T17:49:21.684Z,21.60
2023-03-19T17:51:48.256Z,20.70
2023-03-19T17:54:14.851Z,20.87
2023-03-19T17:56:43.400Z,20.77
2023-03-19T17:59:10.951Z,20.43
2023-03-19T18:01:38.274Z,20.23
2023-03-19T18:04:04.827Z,20.03
2023-03-19T18:06:34.739Z,20.30
2023-03-19T18:09:01.333Z,19.80
2023-03-19T18:11:27.785Z,19.83
2023-03-19T18:13:54.272Z,20.47
2023-03-19T18:16:31.922Z,19.13
2023-03-19T18:19:01.165Z,20.33
2023-03-19T18:21:28.371Z,19.70
2023-03-19T18:23:56.769Z,20.33
2023-03-19T18:26:24.103Z,22.17
2023-03-19T18:28:50.626Z,20.73
2023-03-19T18:31:19.298Z,24.67
2023-03-19T18:33:49.691Z,23.10
2023-03-19T18:36:18.886Z,21.47
2023-03-19T18:38:45.783Z,21.83
2023-03-19T18:41:18.626Z,23.00
2023-03-19T18:43:45.753Z,22.97
2023-03-19T18:46:14.432Z,27.63
2023-03-19T18:48:41.034Z,27.67
2023-03-19T18:51:10.716Z,27.80
2023-03-19T18:53:37.572Z,28.57
2023-03-19T18:56:07.839Z,29.70
2023-03-19T18:58:34.953Z,30.40
2023-03-19T19:01:04.372Z,28.70
2023-03-19T19:03:31.705Z,30.83
2023-03-19T19:05:58.166Z,31.30
2023-03-19T19:08:26.751Z,33.27
2023-03-19T19:10:58.987Z,31.73
2023-03-19T19:13:28.978Z,31.20
2023-03-19T19:15:55.843Z,32.53
2023-03-19T19:18:27.101Z,32.93
2023-03-19T19:20:54.038Z,32.13
2023-03-19T19:23:22.047Z,34.73
2023-03-19T19:25:51.042Z,35.90
2023-03-19T19:28:26.809Z,37.00
2023-03-19T19:30:55.579Z,39.03
2023-03-19T19:33:24.425Z,40.80
2023-03-19T19:35:52.118Z,41.20
2023-03-19T19:38:20.114Z,46.27
2023-03-19T19:40:49.933Z,46.23
2023-03-19T19:43:22.549Z,47.77
2023-03-19T19:45:51.633Z,46.60
2023-03-19T19:48:26.163Z,49.70
2023-03-19T19:50:53.757Z,46.47
2023-03-19T19:53:20.795Z,48.30
2023-03-19T19:55:47.462Z,49.10
2023-03-19T19:58:23.576Z,46.90
2023-03-19T20:01:02.266Z,48.13
2023-03-19T20:03:32.257Z,48.43
2023-03-19T20:05:59.938Z,46.17
2023-03-19T20:08:27.235Z,49.83
2023-03-19T20:10:54.439Z,50.37
2023-03-19T20:13:30.073Z,46.97
2023-03-19T20:15:58.472Z,47.80
2023-03-19T20:18:30.473Z,48.77
2023-03-19T20:20:58.186Z,50.60
2023-03-19T20:23:24.635Z,44.63
2023-03-19T20:25:51.728Z,40.10
2023-03-19T20:28:24.840Z,45.67
2023-03-19T20:30:53.984Z,45.70
2023-03-19T20:33:21.570Z,50.03
2023-03-19T20:35:48.441Z,48.03
2023-03-19T20:38:15.438Z,47.50
2023-03-19T20:40:53.569Z,48.80
2023-03-19T20:43:33.121Z,52.60
2023-03-19T20:46:02.588Z,52.83
2023-03-19T20:48:30.661Z,53.27
2023-03-19T20:50:58.341Z,51.00
2023-03-19T20:53:25.010Z,54.80
2023-03-19T20:55:52.271Z,55.47
2023-03-19T20:58:27.589Z,49.33
2023-03-19T21:00:56.437Z,49.87
2023-03-19T21:03:30.216Z,48.53
2023-03-19T21:06:02.266Z,45.53
2023-03-19T21:08:34.740Z,49.73
2023-03-19T21:11:01.809Z,53.87
2023-03-19T21:13:28.847Z,48.60
2023-03-19T21:15:55.827Z,43.07
2023-03-19T21:18:22.456Z,40.03
2023-03-19T21:20:53.900Z,37.70
2023-03-19T21:23:28.093Z,39.90
2023-03-19T21:25:54.624Z,34.70
2023-03-19T21:28:28.544Z,38.10
2023-03-19T21:30:55.051Z,36.13
2023-03-19T21:33:27.278Z,31.03
2023-03-19T21:35:54.812Z,35.97
2023-03-19T21:38:22.417Z,31.37
2023-03-19T21:40:50.519Z,35.63
2023-03-19T21:43:36.617Z,41.70
2023-03-19T21:46:17.563Z,36.37
2023-03-19T21:48:49.509Z,33.20
2023-03-19T21:51:16.620Z,32.97
2023-03-19T21:53:43.823Z,36.13
2023-03-19T21:56:22.228Z,35.33
2023-03-19T21:58:50.748Z,37.53
2023-03-19T22:01:20.688Z,33.33
2023-03-19T22:03:47.457Z,32.60
2023-03-19T22:06:14.240Z,32.23
2023-03-19T22:08:41.654Z,27.50
2023-03-19T22:11:17.645Z,33.30
2023-03-19T22:13:44.580Z,29.03
2023-03-19T22:16:23.907Z,33.43
2023-03-19T22:18:51.523Z,33.87
2023-03-19T22:21:20.335Z,30.50
2023-03-19T22:23:47.570Z,31.57
2023-03-19T22:26:29.962Z,32.63
2023-03-19T22:28:58.223Z,33.47
2023-03-19T22:31:24.920Z,32.43
2023-03-19T22:33:51.572Z,34.17
2023-03-19T22:36:18.410Z,33.37
2023-03-19T22:38:45.012Z,34.17
2023-03-19T22:41:25.184Z,32.23
2023-03-19T22:43:51.770Z,36.13
2023-03-19T22:46:18.997Z,35.00
2023-03-19T22:48:50.326Z,33.77
2023-03-19T22:51:19.112Z,32.87
2023-03-19T22:53:46.213Z,32.07
2023-03-19T22:56:14.039Z,32.10
2023-03-19T22:58:41.629Z,33.53
2023-03-19T23:01:28.913Z,29.90
2023-03-19T23:03:56.244Z,30.63
2023-03-19T23:06:30.637Z,30.90
2023-03-19T23:08:58.427Z,33.30
2023-03-19T23:11:25.617Z,31.57
2023-03-19T23:13:52.564Z,29.87
2023-03-19T23:16:23.451Z,28.67
2023-03-19T23:18:50.317Z,27.87
2023-03-19T23:21:18.331Z,23.57
2023-03-19T23:23:45.551Z,22.83
2023-03-19T23:26:25.418Z,26.30
2023-03-19T23:28:52.665Z,28.63
2023-03-19T23:31:19.982Z,27.67
2023-03-19T23:33:46.625Z,25.67
2023-03-19T23:36:13.424Z,28.03
2023-03-19T23:38:39.939Z,28.70
2023-03-19T23:41:07.322Z,25.40
2023-03-19T23:43:34.237Z,30.97
2023-03-19T23:46:01.080Z,25.93
2023-03-19T23:48:35.390Z,29.40
2023-03-19T23:51:02.408Z,27.33
2023-03-19T23:53:29.774Z,26.57
2023-03-19T23:56:03.144Z,29.57
2023-03-19T23:58:39.962Z,26.93
